createdAt,value
2017-07-06T00:02:24.972Z,95805.47
2017-07-06T00:04:52.522Z,95804.27
2017-07-06T00:07:20.426Z,95803.06
2017-07-06T00:09:48.047Z,95800.08
2017-07-06T00:12:16.146Z,95799.05
2017-07-06T00:14:44.052Z,95804.47
2017-07-06T00:17:11.648Z,95801.25
2017-07-06T00:19:39.203Z,95802.50
2017-07-06T00:22:07.553Z,95804.19
2017-07-06T00:24:35.162Z,95800.64
2017-07-06T00:27:02.779Z,95802.25
2017-07-06T00:29:30.327Z,95804.77
2017-07-06T00:31:57.931Z,95800.83
2017-07-06T00:34:25.469Z,95798.86
2017-07-06T00:36:53.047Z,95788.45
2017-07-06T00:39:21.303Z,95797.23
2017-07-06T00:41:48.872Z,95803.06
2017-07-06T00:44:17.775Z,95801.50
2017-07-06T00:46:45.403Z,95796.13
2017-07-06T00:49:12.937Z,95800.30
2017-07-06T00:51:41.543Z,95804.75
2017-07-06T00:54:09.125Z,95798.05
2017-07-06T00:56:36.693Z,95795.77
2017-07-06T00:59:05.346Z,95799.23
2017-07-06T01:01:32.918Z,95801.86
2017-07-06T01:04:00.516Z,95796.31
2017-07-06T01:06:28.256Z,95794.39
2017-07-06T01:08:55.845Z,95790.44
2017-07-06T01:11:23.420Z,95791.63
2017-07-06T01:13:50.975Z,95800.88
2017-07-06T01:16:18.594Z,95786.66
2017-07-06T01:19:18.074Z,95783.92
2017-07-06T01:21:46.643Z,95786.08
2017-07-06T01:24:14.282Z,95795.31
2017-07-06T01:26:42.716Z,95783.58
2017-07-06T01:29:13.085Z,95788.13
2017-07-06T01:31:42.451Z,95789.84
2017-07-06T01:34:10.075Z,95802.28
2017-07-06T01:40:00.935Z,95810.19
2017-07-06T01:42:28.543Z,95805.42
2017-07-06T01:44:57.227Z,95803.03
2017-07-06T01:47:25.097Z,95809.13
2017-07-06T01:49:52.707Z,95800.69
2017-07-06T01:52:21.203Z,95810.95
2017-07-06T01:54:48.828Z,95807.69
2017-07-06T01:57:17.496Z,95807.92
2017-07-06T01:59:45.144Z,95807.20
2017-07-06T02:02:12.753Z,95814.95
2017-07-06T02:04:41.351Z,95815.91
2017-07-06T02:07:08.947Z,95816.18
2017-07-06T02:09:36.549Z,95812.30
2017-07-06T02:12:04.171Z,95824.95
2017-07-06T02:14:31.794Z,95814.71
2017-07-06T02:17:02.149Z,95819.52
2017-07-06T02:19:30.396Z,95820.19
2017-07-06T02:21:57.970Z,95824.30
2017-07-06T02:24:25.606Z,95821.30
2017-07-06T02:26:53.139Z,95816.52
2017-07-06T02:29:20.760Z,95821.16
2017-07-06T02:31:48.993Z,95820.84
2017-07-06T02:34:18.078Z,95825.73
2017-07-06T02:36:46.750Z,95831.01
2017-07-06T02:39:14.365Z,95830.54
2017-07-06T02:41:43.294Z,95833.52
2017-07-06T02:44:11.082Z,95828.90
2017-07-06T02:46:39.306Z,95829.84
2017-07-06T02:49:06.948Z,95830.82
2017-07-06T02:51:36.785Z,95826.88
2017-07-06T02:54:04.384Z,95820.42
2017-07-06T02:56:32.103Z,95822.80
2017-07-06T02:59:00.798Z,95824.66
2017-07-06T03:01:29.682Z,95822.50
2017-07-06T03:03:58.767Z,95822.88
2017-07-06T03:06:26.787Z,95830.76
2017-07-06T03:08:54.373Z,95832.59
2017-07-06T03:11:22.343Z,95837.13
2017-07-06T03:13:50.697Z,95839.98
2017-07-06T03:16:18.300Z,95841.08
2017-07-06T03:18:46.820Z,95845.59
2017-07-06T03:21:18.083Z,95852.60
2017-07-06T03:23:45.692Z,95847.37
2017-07-06T03:26:13.254Z,95848.32
2017-07-06T03:28:40.818Z,95849.25
2017-07-06T03:31:08.398Z,95846.37
2017-07-06T03:33:37.439Z,95846.56
2017-07-06T03:36:06.695Z,95838.00
2017-07-06T03:38:35.235Z,95846.37
2017-07-06T03:41:02.811Z,95850.50
2017-07-06T03:43:31.236Z,95848.17
2017-07-06T03:45:59.412Z,95845.84
2017-07-06T03:48:26.996Z,95851.12
2017-07-06T03:50:55.398Z,95854.16
2017-07-06T03:53:23.720Z,95846.97
2017-07-06T03:55:51.357Z,95850.61
2017-07-06T03:58:18.970Z,95846.34
2017-07-06T04:00:46.907Z,95844.19
2017-07-06T04:03:14.479Z,95848.00
2017-07-06T04:05:42.608Z,95845.84
2017-07-06T04:08:10.269Z,95850.00
2017-07-06T04:10:38.022Z,95852.13
2017-07-06T04:13:08.735Z,95850.48
2017-07-06T04:15:36.371Z,95851.20
2017-07-06T04:18:06.142Z,95854.96
2017-07-06T04:20:33.975Z,95860.32
2017-07-06T04:23:02.262Z,95845.81
2017-07-06T04:25:29.843Z,95853.42
2017-07-06T04:27:57.669Z,95850.70
2017-07-06T04:30:25.492Z,95846.21
2017-07-06T04:32:53.142Z,95845.23
2017-07-06T04:35:23.033Z,95846.16
2017-07-06T04:37:50.865Z,95842.38
2017-07-06T04:40:18.570Z,95840.06
2017-07-06T04:42:46.257Z,95841.13
2017-07-06T04:45:13.913Z,95844.73
2017-07-06T04:47:41.739Z,95846.75
2017-07-06T04:50:09.418Z,95841.69
2017-07-06T04:52:37.239Z,95846.95
2017-07-06T04:55:04.910Z,95852.06
2017-07-06T04:57:33.988Z,95852.80
2017-07-06T05:00:01.689Z,95850.07
2017-07-06T05:02:29.336Z,95849.85
2017-07-06T05:04:57.102Z,95848.77
2017-07-06T05:07:24.931Z,95853.69
2017-07-06T05:09:53.543Z,95860.53
2017-07-06T05:12:21.072Z,95857.20
2017-07-06T05:14:49.718Z,95855.84
2017-07-06T05:17:17.645Z,95853.66
2017-07-06T05:19:45.847Z,95852.51
2017-07-06T05:22:13.473Z,95862.51
2017-07-06T05:24:41.170Z,95855.25
2017-07-06T05:27:09.396Z,95864.69
2017-07-06T05:29:37.006Z,95859.55
2017-07-06T05:32:04.657Z,95861.50
2017-07-06T05:34:32.299Z,95851.91
2017-07-06T05:36:59.977Z,95856.05
2017-07-06T05:39:27.656Z,95850.74
2017-07-06T05:41:55.291Z,95852.50
2017-07-06T05:44:22.961Z,95854.83
2017-07-06T05:46:50.672Z,95858.89
2017-07-06T05:49:18.522Z,95853.16
2017-07-06T05:51:46.336Z,95849.49
2017-07-06T05:54:14.078Z,95851.17
2017-07-06T05:56:41.732Z,95852.83
2017-07-06T05:59:09.345Z,95853.03
2017-07-06T06:01:37.009Z,95856.28
2017-07-06T06:04:04.624Z,95862.30
2017-07-06T06:06:32.651Z,95853.21
2017-07-06T06:09:00.333Z,95853.13
2017-07-06T06:11:27.969Z,95857.58
2017-07-06T06:13:55.597Z,95850.49
2017-07-06T06:16:23.260Z,95853.08
2017-07-06T06:18:50.876Z,95856.52
2017-07-06T06:21:18.507Z,95859.27
2017-07-06T06:23:46.157Z,95861.77
2017-07-06T06:26:13.843Z,95859.06
2017-07-06T06:28:41.408Z,95857.64
2017-07-06T06:31:09.779Z,95861.17
2017-07-06T06:33:37.423Z,95864.50
2017-07-06T06:36:05.091Z,95859.59
2017-07-06T06:38:32.735Z,95860.17
2017-07-06T06:41:00.355Z,95859.16
2017-07-06T06:43:28.012Z,95860.07
2017-07-06T06:45:55.634Z,95860.86
2017-07-06T06:48:23.272Z,95856.46
2017-07-06T06:50:50.830Z,95854.76
2017-07-06T06:53:18.690Z,95859.58
2017-07-06T06:55:46.329Z,95855.91
2017-07-06T06:58:14.950Z,95857.28
2017-07-06T07:00:42.973Z,95857.17
2017-07-06T07:03:10.585Z,95858.20
2017-07-06T07:05:38.194Z,95861.04
2017-07-06T07:08:05.854Z,95856.83
2017-07-06T07:10:33.533Z,95859.50
2017-07-06T07:13:01.158Z,95861.64
2017-07-06T07:15:28.746Z,95855.28
2017-07-06T07:17:56.342Z,95855.03
2017-07-06T07:20:23.919Z,95856.05
2017-07-06T07:22:51.794Z,95853.19
2017-07-06T07:25:19.394Z,95851.41
2017-07-06T07:27:46.985Z,95846.70
2017-07-06T07:30:14.786Z,95855.30
2017-07-06T07:32:42.409Z,95853.53
2017-07-06T07:35:10.026Z,95856.81
2017-07-06T07:37:37.735Z,95857.84
2017-07-06T07:40:05.322Z,95861.08
2017-07-06T07:42:32.960Z,95854.59
2017-07-06T07:45:01.257Z,95852.83
2017-07-06T07:47:28.814Z,95852.83
2017-07-06T07:49:56.426Z,95853.70
2017-07-06T07:52:24.092Z,95848.25
2017-07-06T07:54:51.651Z,95845.56
2017-07-06T07:57:19.240Z,95850.88
2017-07-06T07:59:46.890Z,95853.46
2017-07-06T08:02:14.540Z,95848.25
2017-07-06T08:04:42.146Z,95856.00
2017-07-06T08:07:09.790Z,95848.13
2017-07-06T08:09:37.628Z,95844.44
2017-07-06T08:12:05.277Z,95852.42
2017-07-06T08:14:32.844Z,95847.44
2017-07-06T08:17:01.079Z,95842.23
2017-07-06T08:19:28.720Z,95838.95
2017-07-06T08:21:56.821Z,95840.63
2017-07-06T08:24:24.457Z,95833.72
2017-07-06T08:26:52.217Z,95834.53
2017-07-06T08:29:20.559Z,95833.88
2017-07-06T08:31:49.089Z,95836.99
2017-07-06T08:34:16.650Z,95830.44
2017-07-06T08:36:44.281Z,95830.09
2017-07-06T08:39:11.912Z,95828.41
2017-07-06T08:41:40.594Z,95830.92
2017-07-06T08:44:08.163Z,95826.98
2017-07-06T08:46:35.750Z,95822.27
2017-07-06T08:49:03.543Z,95822.13
2017-07-06T08:51:31.310Z,95818.98
2017-07-06T08:53:59.005Z,95815.98
2017-07-06T08:56:26.761Z,95810.59
2017-07-06T08:58:54.433Z,95812.69
2017-07-06T09:01:22.145Z,95806.45
2017-07-06T09:03:49.745Z,95808.84
2017-07-06T09:06:17.301Z,95808.37
2017-07-06T09:08:44.894Z,95806.69
2017-07-06T09:11:12.642Z,95801.91
2017-07-06T09:13:40.572Z,95793.87
2017-07-06T09:16:08.155Z,95792.98
2017-07-06T09:18:35.698Z,95785.37
2017-07-06T09:21:03.257Z,95790.08
2017-07-06T09:23:30.852Z,95781.77
2017-07-06T09:25:58.442Z,95785.22
2017-07-06T09:28:26.042Z,95785.60
2017-07-06T09:30:53.941Z,95789.25
2017-07-06T09:33:21.773Z,95777.11
2017-07-06T09:35:49.327Z,95777.64
2017-07-06T09:38:17.562Z,95775.50
2017-07-06T09:40:45.965Z,95775.58
2017-07-06T09:43:13.729Z,95775.86
2017-07-06T09:45:41.302Z,95780.22
2017-07-06T09:48:08.847Z,95776.06
2017-07-06T09:50:37.184Z,95771.69
2017-07-06T09:53:04.782Z,95774.52
2017-07-06T09:55:32.311Z,95773.01
2017-07-06T09:57:59.838Z,95771.59
2017-07-06T10:00:27.450Z,95767.80
2017-07-06T10:02:54.979Z,95767.92
2017-07-06T10:05:22.720Z,95768.19
2017-07-06T10:07:50.302Z,95762.75
2017-07-06T10:10:17.860Z,95765.44
2017-07-06T10:12:45.397Z,95759.36
2017-07-06T10:15:12.949Z,95753.74
2017-07-06T10:17:41.123Z,95760.64
2017-07-06T10:20:08.858Z,95759.01
2017-07-06T10:22:36.454Z,95760.97
2017-07-06T10:25:04.020Z,95750.86
2017-07-06T10:27:31.571Z,95742.07
2017-07-06T10:29:59.385Z,95738.09
2017-07-06T10:32:26.947Z,95737.56
2017-07-06T10:34:54.546Z,95731.14
2017-07-06T10:37:22.076Z,95730.45
2017-07-06T10:39:49.636Z,95725.37
2017-07-06T10:42:17.205Z,95721.62
2017-07-06T10:44:44.763Z,95726.65
2017-07-06T10:47:12.338Z,95723.36
2017-07-06T10:49:39.965Z,95720.77
2017-07-06T10:52:07.514Z,95717.94
2017-07-06T10:54:35.184Z,95719.45
2017-07-06T10:57:02.698Z,95715.66
2017-07-06T10:59:30.489Z,95724.48
2017-07-06T11:01:58.053Z,95714.44
2017-07-06T11:04:25.630Z,95707.56
2017-07-06T11:06:53.142Z,95712.45
2017-07-06T11:09:20.750Z,95707.83
2017-07-06T11:11:48.350Z,95706.66
2017-07-06T11:14:15.848Z,95703.72
2017-07-06T11:16:43.519Z,95703.38
2017-07-06T11:19:11.019Z,95705.88
2017-07-06T11:21:38.590Z,95701.23
2017-07-06T11:24:06.209Z,95697.09
2017-07-06T11:26:33.950Z,95697.63
2017-07-06T11:29:01.691Z,95697.41
2017-07-06T11:31:29.282Z,95697.00
2017-07-06T11:33:56.841Z,95694.23
2017-07-06T11:36:24.648Z,95691.73
2017-07-06T11:38:52.282Z,95683.27
2017-07-06T11:41:19.804Z,95689.91
2017-07-06T11:43:47.355Z,95687.42
2017-07-06T11:46:14.943Z,95685.16
2017-07-06T11:48:42.507Z,95677.75
2017-07-06T11:51:10.024Z,95671.23
2017-07-06T11:53:37.651Z,95666.34
2017-07-06T11:56:05.183Z,95671.37
2017-07-06T11:58:33.714Z,95669.17
2017-07-06T12:01:01.348Z,95669.31
2017-07-06T12:03:29.682Z,95665.29
2017-07-06T12:05:57.229Z,95665.33
2017-07-06T12:08:24.893Z,95658.99
2017-07-06T12:10:52.499Z,95662.34
2017-07-06T12:13:20.608Z,95663.44
2017-07-06T12:15:48.297Z,95664.13
2017-07-06T12:18:15.815Z,95656.04
2017-07-06T12:20:43.408Z,95657.63
2017-07-06T12:23:11.048Z,95648.59
2017-07-06T12:25:38.548Z,95653.09
2017-07-06T12:28:06.136Z,95645.01
2017-07-06T12:30:33.720Z,95644.31
2017-07-06T12:33:01.289Z,95637.46
2017-07-06T12:35:29.038Z,95634.84
2017-07-06T12:37:56.613Z,95640.92
2017-07-06T12:40:24.347Z,95631.11
2017-07-06T12:42:51.913Z,95641.87
2017-07-06T12:45:19.486Z,95630.86
2017-07-06T12:47:47.225Z,95624.47
2017-07-06T12:50:14.989Z,95622.73
2017-07-06T12:52:42.548Z,95619.02
2017-07-06T12:55:10.949Z,95623.08
2017-07-06T12:57:38.539Z,95614.88
2017-07-06T13:00:07.110Z,95622.42
2017-07-06T13:02:34.873Z,95615.05
2017-07-06T13:05:02.487Z,95618.48
2017-07-06T13:07:30.069Z,95621.52
2017-07-06T13:09:57.830Z,95620.59
2017-07-06T13:12:25.369Z,95625.30
2017-07-06T13:14:52.960Z,95608.04
2017-07-06T13:17:20.740Z,95615.83
2017-07-06T13:19:48.870Z,95608.28
2017-07-06T13:22:17.386Z,95606.59
2017-07-06T13:24:44.941Z,95603.78
2017-07-06T13:27:12.491Z,95611.88
2017-07-06T13:29:40.079Z,95605.37
2017-07-06T13:32:07.652Z,95604.75
2017-07-06T13:34:35.212Z,95600.31
2017-07-06T13:37:03.021Z,95598.96
2017-07-06T13:39:30.697Z,95600.72
2017-07-06T13:41:58.373Z,95592.72
2017-07-06T13:44:26.014Z,95591.98
2017-07-06T13:46:53.640Z,95591.09
2017-07-06T13:49:21.296Z,95591.84
2017-07-06T13:51:48.943Z,95589.11
2017-07-06T13:54:16.599Z,95586.66
2017-07-06T13:56:44.301Z,95585.80
2017-07-06T13:59:12.876Z,95588.00
2017-07-06T14:01:40.484Z,95588.50
2017-07-06T14:04:08.277Z,95580.84
2017-07-06T14:06:35.916Z,95583.59
2017-07-06T14:09:03.593Z,95579.70
2017-07-06T14:11:31.518Z,95574.42
2017-07-06T14:13:59.141Z,95585.58
2017-07-06T14:16:27.263Z,95581.34
2017-07-06T14:18:54.861Z,95579.00
2017-07-06T14:21:22.835Z,95572.84
2017-07-06T14:23:50.505Z,95574.04
2017-07-06T14:26:18.471Z,95563.00
2017-07-06T14:28:46.106Z,95566.56
2017-07-06T14:31:13.972Z,95553.36
2017-07-06T14:33:41.592Z,95557.61
2017-07-06T14:36:09.235Z,95559.30
2017-07-06T14:38:36.885Z,95538.22
2017-07-06T14:41:04.499Z,95545.55
2017-07-06T14:43:32.153Z,95544.64
2017-07-06T14:45:59.946Z,95546.41
2017-07-06T14:48:27.565Z,95540.05
2017-07-06T14:50:55.191Z,95539.12
2017-07-06T14:53:22.786Z,95542.00
2017-07-06T14:55:50.551Z,95534.36
2017-07-06T14:58:18.312Z,95533.40
2017-07-06T15:00:45.887Z,95532.42
2017-07-06T15:03:14.249Z,95529.95
2017-07-06T15:05:41.818Z,95535.20
2017-07-06T15:08:09.413Z,95536.65
2017-07-06T15:10:37.068Z,95532.47
2017-07-06T15:13:04.658Z,95530.35
2017-07-06T15:15:32.293Z,95536.77
2017-07-06T15:17:59.913Z,95528.00
2017-07-06T15:20:27.495Z,95532.88
2017-07-06T15:22:55.094Z,95527.91
2017-07-06T15:25:23.236Z,95522.88
2017-07-06T15:27:50.983Z,95527.09
2017-07-06T15:30:18.592Z,95521.67
2017-07-06T15:32:46.796Z,95524.44
2017-07-06T15:35:14.540Z,95526.02
2017-07-06T15:37:42.123Z,95528.02
2017-07-06T15:40:09.722Z,95529.48
2017-07-06T15:42:37.291Z,95535.69
2017-07-06T15:45:04.865Z,95529.74
2017-07-06T15:47:32.398Z,95530.20
2017-07-06T15:49:59.925Z,95526.57
2017-07-06T15:52:27.792Z,95524.03
2017-07-06T15:54:55.423Z,95525.51
2017-07-06T15:57:22.995Z,95524.39
2017-07-06T15:59:50.633Z,95529.95
2017-07-06T16:02:18.221Z,95532.79
2017-07-06T16:04:45.977Z,95529.27
2017-07-06T16:07:13.728Z,95537.23
2017-07-06T16:09:41.601Z,95531.74
2017-07-06T16:12:09.155Z,95532.64
2017-07-06T16:14:36.747Z,95540.56
2017-07-06T16:17:04.354Z,95531.56
2017-07-06T16:19:31.946Z,95540.52
2017-07-06T16:21:59.545Z,95544.69
2017-07-06T16:24:27.186Z,95538.53
2017-07-06T16:26:54.757Z,95545.44
2017-07-06T16:29:22.326Z,95539.26
2017-07-06T16:31:50.054Z,95552.27
2017-07-06T16:34:17.625Z,95554.02
2017-07-06T16:36:45.745Z,95547.84
2017-07-06T16:39:13.352Z,95554.36
2017-07-06T16:41:41.115Z,95555.53
2017-07-06T16:44:09.010Z,95556.58
2017-07-06T16:46:37.029Z,95559.86
2017-07-06T16:49:05.689Z,95574.23
2017-07-06T16:51:33.346Z,95581.94
2017-07-06T16:54:01.033Z,95575.07
2017-07-06T16:56:28.617Z,95572.77
2017-07-06T16:58:56.268Z,95579.16
2017-07-06T17:01:23.908Z,95578.88
2017-07-06T17:03:52.379Z,95581.30
2017-07-06T17:06:19.987Z,95584.00
2017-07-06T17:08:47.735Z,95586.13
2017-07-06T17:11:16.278Z,95592.06
2017-07-06T17:13:44.410Z,95593.39
2017-07-06T17:16:12.353Z,95593.63
2017-07-06T17:18:40.117Z,95589.64
2017-07-06T17:21:07.705Z,95592.08
2017-07-06T17:23:36.581Z,95590.93
2017-07-06T17:26:06.049Z,95594.96
2017-07-06T17:28:37.031Z,95599.92
2017-07-06T17:31:05.308Z,95602.33
2017-07-06T17:33:33.281Z,95603.36
2017-07-06T17:36:03.042Z,95601.03
2017-07-06T17:38:33.536Z,95606.80
2017-07-06T17:41:02.430Z,95601.79
2017-07-06T17:43:30.685Z,95614.05
2017-07-06T17:45:58.806Z,95610.27
2017-07-06T17:48:27.294Z,95608.73
2017-07-06T17:50:55.261Z,95613.45
2017-07-06T17:53:24.337Z,95614.44
2017-07-06T17:55:54.258Z,95617.09
2017-07-06T17:58:24.957Z,95622.55
2017-07-06T18:00:55.940Z,95619.58
2017-07-06T18:03:23.539Z,95619.13
2017-07-06T18:05:51.302Z,95619.97
2017-07-06T18:08:18.992Z,95621.70
2017-07-06T18:10:46.766Z,95623.77
2017-07-06T18:13:14.557Z,95625.71
2017-07-06T18:15:42.362Z,95618.67
2017-07-06T18:18:10.366Z,95623.61
2017-07-06T18:20:38.234Z,95627.14
2017-07-06T18:23:05.849Z,95621.70
2017-07-06T18:25:33.504Z,95621.31
2017-07-06T18:28:01.173Z,95623.35
2017-07-06T18:30:29.559Z,95625.52
2017-07-06T18:32:57.143Z,95623.98
2017-07-06T18:35:24.736Z,95625.58
2017-07-06T18:37:52.382Z,95628.69
2017-07-06T18:40:19.995Z,95638.09
2017-07-06T18:42:48.739Z,95643.05
2017-07-06T18:45:16.382Z,95644.34
2017-07-06T18:47:44.138Z,95641.87
2017-07-06T18:50:11.910Z,95652.43
2017-07-06T18:52:39.533Z,95650.88
2017-07-06T18:55:07.151Z,95654.55
2017-07-06T18:57:34.706Z,95665.64
2017-07-06T19:00:02.503Z,95667.30
2017-07-06T19:02:30.095Z,95669.88
2017-07-06T19:04:57.879Z,95671.06
2017-07-06T19:07:25.445Z,95677.55
2017-07-06T19:09:53.139Z,95677.30
2017-07-06T19:12:20.752Z,95674.69
2017-07-06T19:14:48.379Z,95685.99
2017-07-06T19:17:17.150Z,95686.43
2017-07-06T19:19:44.743Z,95698.66
2017-07-06T19:22:12.407Z,95694.45
2017-07-06T19:24:40.039Z,95697.77
2017-07-06T19:27:07.612Z,95695.84
2017-07-06T19:29:35.303Z,95695.49
2017-07-06T19:32:03.006Z,95694.39
2017-07-06T19:34:30.543Z,95699.06
2017-07-06T19:36:58.110Z,95693.17
2017-07-06T19:39:25.767Z,95694.26
2017-07-06T19:41:53.362Z,95702.47
2017-07-06T19:44:20.939Z,95698.45
2017-07-06T19:46:48.670Z,95696.78
2017-07-06T19:49:16.237Z,95704.78
2017-07-06T19:51:43.835Z,95703.12
2017-07-06T19:54:12.113Z,95708.36
2017-07-06T19:56:40.302Z,95699.11
2017-07-06T19:59:07.841Z,95702.77
2017-07-06T20:01:35.645Z,95702.28
2017-07-06T20:04:04.358Z,95696.94
2017-07-06T20:06:33.155Z,95697.87
2017-07-06T20:09:00.846Z,95694.90
2017-07-06T20:11:28.433Z,95699.64
2017-07-06T20:13:56.194Z,95708.82
2017-07-06T20:16:23.800Z,95707.12
2017-07-06T20:18:51.598Z,95715.51
2017-07-06T20:21:19.275Z,95716.85
2017-07-06T20:23:46.836Z,95719.89
2017-07-06T20:26:14.438Z,95722.05
2017-07-06T20:28:41.988Z,95729.01
2017-07-06T20:31:09.629Z,95738.89
2017-07-06T20:33:37.217Z,95738.56
2017-07-06T20:36:04.820Z,95734.77
2017-07-06T20:38:32.487Z,95730.58
2017-07-06T20:41:00.211Z,95741.02
2017-07-06T20:43:27.924Z,95736.47
2017-07-06T20:45:55.583Z,95732.95
2017-07-06T20:48:23.223Z,95734.02
2017-07-06T20:50:50.848Z,95733.91
2017-07-06T20:53:18.534Z,95743.03
2017-07-06T20:55:46.240Z,95733.72
2017-07-06T20:58:15.336Z,95740.75
2017-07-06T21:00:43.088Z,95741.25
2017-07-06T21:03:10.747Z,95742.20
2017-07-06T21:05:38.451Z,95736.20
2017-07-06T21:08:06.129Z,95741.50
2017-07-06T21:10:40.258Z,95742.33
2017-07-06T21:13:08.298Z,95741.41
2017-07-06T21:15:35.914Z,95739.16
2017-07-06T21:18:03.496Z,95732.59
2017-07-06T21:20:31.886Z,95736.62
2017-07-06T21:22:59.458Z,95737.16
2017-07-06T21:25:27.175Z,95737.23
2017-07-06T21:27:55.821Z,95743.12
2017-07-06T21:30:23.902Z,95740.45
2017-07-06T21:32:51.514Z,95742.89
2017-07-06T21:35:19.069Z,95740.83
2017-07-06T21:37:46.662Z,95742.70
2017-07-06T21:40:14.393Z,95742.04
2017-07-06T21:42:43.660Z,95748.81
2017-07-06T21:45:11.327Z,95738.80
2017-07-06T21:47:38.903Z,95749.42
2017-07-06T21:50:06.502Z,95748.17
2017-07-06T21:52:35.319Z,95747.44
2017-07-06T21:55:02.909Z,95747.08
2017-07-06T21:57:30.466Z,95746.80
2017-07-06T21:59:58.091Z,95746.30
2017-07-06T22:02:25.678Z,95739.78
2017-07-06T22:04:53.306Z,95741.70
2017-07-06T22:07:21.063Z,95743.00
2017-07-06T22:09:49.099Z,95737.45
2017-07-06T22:12:19.638Z,95741.81
2017-07-06T22:14:47.242Z,95753.22
2017-07-06T22:17:14.870Z,95743.64
2017-07-06T22:19:43.420Z,95748.91
2017-07-06T22:22:10.989Z,95737.22
2017-07-06T22:24:38.735Z,95742.86
2017-07-06T22:27:06.327Z,95740.30
2017-07-06T22:29:33.883Z,95739.73
2017-07-06T22:32:01.514Z,95737.59
2017-07-06T22:34:29.104Z,95733.35
2017-07-06T22:36:56.654Z,95733.05
2017-07-06T22:39:25.176Z,95737.78
2017-07-06T22:41:52.771Z,95735.67
2017-07-06T22:44:20.400Z,95733.28
2017-07-06T22:46:48.032Z,95743.79
2017-07-06T22:49:15.593Z,95744.33
2017-07-06T22:51:43.178Z,95741.58
2017-07-06T22:54:10.782Z,95742.46
2017-07-06T22:56:38.400Z,95746.20
2017-07-06T22:59:06.454Z,95746.07
2017-07-06T23:01:34.135Z,95741.52
2017-07-06T23:04:01.773Z,95750.23
2017-07-06T23:06:29.417Z,95744.04
2017-07-06T23:08:57.345Z,95742.29
2017-07-06T23:11:24.971Z,95736.34
2017-07-06T23:13:52.639Z,95736.64
2017-07-06T23:16:20.249Z,95737.30
2017-07-06T23:18:47.850Z,95736.98
2017-07-06T23:21:15.469Z,95738.62
2017-07-06T23:23:43.117Z,95737.92
2017-07-06T23:26:10.864Z,95732.98
2017-07-06T23:28:38.449Z,95732.77
2017-07-06T23:31:06.120Z,95731.44
2017-07-06T23:33:33.681Z,95733.14
2017-07-06T23:36:01.280Z,95736.95
2017-07-06T23:38:28.917Z,95737.55
2017-07-06T23:40:57.057Z,95737.20
2017-07-06T23:43:24.659Z,95737.34
2017-07-06T23:45:52.407Z,95737.54
2017-07-06T23:48:21.488Z,95738.31
2017-07-06T23:50:49.083Z,95742.80
2017-07-06T23:53:16.790Z,95733.42
2017-07-06T23:55:44.615Z,95743.48
2017-07-06T23:58:13.024Z,95745.08
